createdAt,value
2023-03-19T00:03:35.321Z,73.50
2023-03-19T00:07:38.048Z,73.94
2023-03-19T00:11:38.109Z,73.29
2023-03-19T00:15:38.181Z,73.19
2023-03-19T00:19:38.274Z,73.58
2023-03-19T00:23:40.931Z,75.37
2023-03-19T00:27:42.218Z,75.44
2023-03-19T00:31:43.478Z,75.49
2023-03-19T00:35:44.044Z,75.45
2023-03-19T00:39:47.871Z,75.51
2023-03-19T00:43:48.398Z,74.81
2023-03-19T00:47:48.511Z,74.18
2023-03-19T00:51:55.622Z,74.09
2023-03-19T00:56:08.764Z,74.75
2023-03-19T01:00:12.484Z,74.33
2023-03-19T01:04:21.415Z,75.29
2023-03-19T01:08:22.726Z,75.32
2023-03-19T01:12:25.562Z,75.76
2023-03-19T01:16:26.377Z,75.82
2023-03-19T01:20:27.364Z,75.78
2023-03-19T01:24:27.542Z,75.60
2023-03-19T01:28:31.113Z,76.07
2023-03-19T01:32:31.329Z,76.40
2023-03-19T01:36:53.088Z,76.54
2023-03-19T01:41:00.292Z,75.69
2023-03-19T01:45:05.147Z,75.11
2023-03-19T01:49:27.916Z,76.01
2023-03-19T01:53:52.907Z,76.47
2023-03-19T01:58:06.709Z,76.17
2023-03-19T02:02:33.723Z,76.27
2023-03-19T02:06:44.235Z,75.76
2023-03-19T02:10:46.628Z,75.48
2023-03-19T02:14:47.593Z,75.37
2023-03-19T02:18:51.686Z,75.15
2023-03-19T02:23:03.496Z,75.16
2023-03-19T02:27:08.171Z,75.02
2023-03-19T02:31:19.116Z,74.79
2023-03-19T02:35:44.928Z,75.14
2023-03-19T02:39:57.864Z,75.08
2023-03-19T02:44:02.809Z,75.46
2023-03-19T02:48:04.301Z,76.36
2023-03-19T02:52:04.629Z,76.68
2023-03-19T02:56:04.793Z,76.87
2023-03-19T03:00:10.877Z,77.75
2023-03-19T03:04:11.119Z,77.29
2023-03-19T03:08:11.220Z,77.35
2023-03-19T03:12:12.766Z,77.63
2023-03-19T03:16:15.713Z,77.54
2023-03-19T03:20:19.942Z,77.87
2023-03-19T03:24:20.092Z,78.00
2023-03-19T03:28:20.617Z,78.04
2023-03-19T03:32:23.372Z,77.77
2023-03-19T03:36:23.762Z,78.32
2023-03-19T03:40:29.217Z,78.56
2023-03-19T03:44:31.025Z,78.90
2023-03-19T03:48:34.034Z,78.90
2023-03-19T03:52:35.018Z,79.34
2023-03-19T03:56:35.752Z,78.07
2023-03-19T04:00:36.271Z,77.74
2023-03-19T04:04:39.122Z,77.16
2023-03-19T04:08:39.894Z,77.21
2023-03-19T04:12:41.521Z,76.94
2023-03-19T04:16:42.271Z,76.80
2023-03-19T04:20:45.458Z,77.24
2023-03-19T04:24:45.606Z,77.56
2023-03-19T04:28:45.832Z,78.09
2023-03-19T04:32:46.778Z,78.40
2023-03-19T04:36:50.127Z,78.20
2023-03-19T04:40:50.634Z,77.60
2023-03-19T04:44:52.574Z,77.69
2023-03-19T04:48:53.191Z,77.82
2023-03-19T04:52:56.069Z,78.07
2023-03-19T04:56:57.492Z,79.65
2023-03-19T05:01:01.443Z,78.46
2023-03-19T05:05:31.234Z,77.27
2023-03-19T05:09:34.481Z,76.88
2023-03-19T05:13:34.718Z,77.38
2023-03-19T05:17:36.309Z,78.60
2023-03-19T05:21:53.268Z,78.92
2023-03-19T05:26:01.800Z,78.74
2023-03-19T05:30:27.654Z,78.80
2023-03-19T05:34:41.811Z,78.99
2023-03-19T05:38:42.205Z,78.82
2023-03-19T05:42:50.946Z,78.42
2023-03-19T05:47:04.796Z,77.71
2023-03-19T05:51:08.863Z,77.73
2023-03-19T05:55:13.531Z,77.65
2023-03-19T05:59:20.266Z,77.32
2023-03-19T06:03:30.787Z,76.32
2023-03-19T06:07:34.221Z,75.80
2023-03-19T06:11:34.822Z,75.58
2023-03-19T06:15:57.416Z,75.15
2023-03-19T06:20:03.418Z,74.45
2023-03-19T06:24:03.685Z,74.27
2023-03-19T06:28:08.579Z,74.38
2023-03-19T06:32:15.893Z,74.21
2023-03-19T06:36:16.696Z,73.33
2023-03-19T06:40:17.651Z,73.05
2023-03-19T06:44:17.905Z,72.39
2023-03-19T06:48:20.761Z,71.69
2023-03-19T06:52:20.897Z,71.10
2023-03-19T06:56:21.121Z,70.35
2023-03-19T07:00:22.816Z,70.80
2023-03-19T07:04:25.681Z,69.85
2023-03-19T07:08:29.724Z,69.64
2023-03-19T07:12:30.554Z,69.07
2023-03-19T07:16:30.930Z,69.29
2023-03-19T07:20:33.870Z,69.90
2023-03-19T07:24:34.086Z,68.57
2023-03-19T07:28:34.637Z,67.91
2023-03-19T07:32:34.937Z,67.16
2023-03-19T07:36:37.670Z,66.43
2023-03-19T07:40:38.883Z,66.44
2023-03-19T07:44:41.976Z,64.40
2023-03-19T07:48:42.500Z,63.37
2023-03-19T07:52:45.164Z,62.78
2023-03-19T07:56:45.441Z,61.92
2023-03-19T08:00:46.344Z,60.08
2023-03-19T08:04:46.957Z,61.31
2023-03-19T08:08:49.957Z,61.65
2023-03-19T08:12:50.020Z,61.63
2023-03-19T08:16:50.115Z,61.39
2023-03-19T08:20:50.430Z,59.82
2023-03-19T08:24:53.034Z,59.70
2023-03-19T08:28:53.123Z,58.98
2023-03-19T08:32:53.236Z,58.69
2023-03-19T08:36:53.410Z,58.44
2023-03-19T08:41:08.223Z,57.76
2023-03-19T08:45:13.897Z,58.64
2023-03-19T08:49:23.092Z,59.05
2023-03-19T08:53:23.752Z,58.52
2023-03-19T08:57:26.491Z,59.09
2023-03-19T09:01:26.662Z,59.61
2023-03-19T09:05:29.672Z,60.07
2023-03-19T09:09:30.111Z,61.03
2023-03-19T09:13:33.661Z,61.57
2023-03-19T09:17:33.815Z,61.38
2023-03-19T09:21:33.905Z,61.89
2023-03-19T09:25:34.080Z,61.74
2023-03-19T09:29:36.851Z,62.13
2023-03-19T09:33:37.263Z,61.99
2023-03-19T09:37:37.353Z,63.48
2023-03-19T09:41:59.997Z,64.24
2023-03-19T09:46:09.050Z,65.65
2023-03-19T09:50:17.457Z,67.50
2023-03-19T09:54:32.566Z,68.69
2023-03-19T09:58:37.740Z,69.63
2023-03-19T10:02:46.903Z,70.59
2023-03-19T10:06:47.132Z,70.42
2023-03-19T10:10:58.508Z,71.23
2023-03-19T10:15:19.839Z,71.04
2023-03-19T10:19:29.956Z,72.53
2023-03-19T10:23:41.816Z,74.39
2023-03-19T10:27:50.710Z,76.39
2023-03-19T10:32:07.803Z,77.09
2023-03-19T10:36:25.537Z,78.58
2023-03-19T10:40:55.237Z,78.80
2023-03-19T10:45:15.766Z,80.13
2023-03-19T10:49:20.111Z,80.39
2023-03-19T10:53:50.783Z,79.76
2023-03-19T10:58:07.279Z,80.37
2023-03-19T11:02:22.711Z,79.85
2023-03-19T11:06:29.166Z,81.18
2023-03-19T11:10:35.509Z,81.92
2023-03-19T11:14:43.913Z,82.07
2023-03-19T11:18:44.034Z,81.82
2023-03-19T11:22:44.751Z,80.61
2023-03-19T11:26:57.386Z,79.71
2023-03-19T11:31:09.388Z,80.07
2023-03-19T11:35:18.234Z,76.57
2023-03-19T11:39:32.413Z,77.84
2023-03-19T11:43:59.484Z,77.09
2023-03-19T11:48:19.588Z,76.13
2023-03-19T11:52:29.589Z,74.62
2023-03-19T11:56:43.418Z,74.02
2023-03-19T12:00:53.109Z,69.90
2023-03-19T12:05:09.262Z,68.20
2023-03-19T12:09:22.464Z,68.41
2023-03-19T12:13:40.980Z,68.53
2023-03-19T12:18:01.413Z,65.38
2023-03-19T12:22:16.563Z,66.81
2023-03-19T12:26:32.905Z,64.82
2023-03-19T12:30:42.555Z,63.91
2023-03-19T12:34:51.261Z,62.08
2023-03-19T12:38:57.443Z,57.30
2023-03-19T12:43:02.710Z,57.07
2023-03-19T12:47:12.472Z,56.85
2023-03-19T12:51:22.878Z,54.38
2023-03-19T12:55:28.402Z,51.86
2023-03-19T12:59:39.211Z,48.22
2023-03-19T13:03:53.469Z,45.66
2023-03-19T13:08:08.108Z,44.85
2023-03-19T13:12:14.910Z,43.66
2023-03-19T13:16:36.557Z,45.15
2023-03-19T13:21:00.597Z,49.20
2023-03-19T13:25:05.774Z,51.04
2023-03-19T13:29:17.229Z,49.94
2023-03-19T13:33:24.949Z,50.99
2023-03-19T13:37:28.326Z,49.74
2023-03-19T13:42:11.376Z,50.55
2023-03-19T13:46:41.662Z,47.94
2023-03-19T13:51:03.112Z,47.55
2023-03-19T13:55:50.119Z,48.19
2023-03-19T14:00:33.989Z,48.25
2023-03-19T14:04:40.259Z,49.14
2023-03-19T14:08:51.852Z,46.42
2023-03-19T14:12:53.049Z,46.24
2023-03-19T14:16:56.885Z,47.63
2023-03-19T14:21:07.088Z,47.69
2023-03-19T14:25:22.748Z,47.56
2023-03-19T14:29:26.979Z,48.98
2023-03-19T14:33:40.819Z,49.86
2023-03-19T14:37:49.553Z,49.95
2023-03-19T14:41:54.584Z,50.40
2023-03-19T14:46:04.226Z,51.08
2023-03-19T14:50:33.781Z,51.32
2023-03-19T14:54:43.800Z,52.69
2023-03-19T14:58:52.841Z,53.00
2023-03-19T15:02:55.559Z,52.30
2023-03-19T15:07:02.726Z,52.42
2023-03-19T15:11:35.242Z,49.99
2023-03-19T15:15:59.698Z,51.98
2023-03-19T15:20:04.938Z,49.70
2023-03-19T15:24:16.657Z,49.74
2023-03-19T15:28:19.911Z,50.92
2023-03-19T15:32:52.251Z,51.88
2023-03-19T15:37:01.827Z,55.18
2023-03-19T15:41:06.820Z,55.97
2023-03-19T15:45:13.024Z,56.26
2023-03-19T15:49:34.735Z,56.62
2023-03-19T15:53:43.476Z,59.33
2023-03-19T15:57:49.356Z,60.43
2023-03-19T16:01:51.134Z,59.95
2023-03-19T16:06:01.307Z,59.52
2023-03-19T16:10:02.225Z,59.37
2023-03-19T16:14:13.434Z,59.53
2023-03-19T16:18:29.913Z,60.65
2023-03-19T16:22:35.023Z,61.54
2023-03-19T16:26:42.835Z,61.26
2023-03-19T16:30:52.268Z,61.56
2023-03-19T16:34:56.783Z,62.87
2023-03-19T16:39:00.911Z,62.93
2023-03-19T16:43:11.064Z,63.30
2023-03-19T16:47:17.296Z,64.02
2023-03-19T16:51:22.342Z,64.76
2023-03-19T16:55:26.997Z,65.72
2023-03-19T16:59:33.204Z,67.12
2023-03-19T17:03:36.011Z,67.83
2023-03-19T17:07:36.129Z,67.99
2023-03-19T17:11:42.938Z,69.30
2023-03-19T17:15:45.952Z,69.61
2023-03-19T17:19:51.555Z,70.46
2023-03-19T17:23:51.936Z,70.97
2023-03-19T17:27:57.233Z,72.06
2023-03-19T17:32:08.401Z,72.54
2023-03-19T17:36:14.596Z,73.79
2023-03-19T17:40:23.225Z,73.95
2023-03-19T17:44:24.509Z,75.28
2023-03-19T17:48:30.157Z,76.02
2023-03-19T17:52:45.676Z,75.16
2023-03-19T17:56:51.390Z,75.53
2023-03-19T18:01:07.674Z,75.44
2023-03-19T18:05:25.455Z,76.66
2023-03-19T18:09:36.948Z,76.05
2023-03-19T18:13:45.400Z,76.77
2023-03-19T18:17:51.624Z,76.39
2023-03-19T18:21:51.741Z,75.82
2023-03-19T18:25:54.478Z,75.76
2023-03-19T18:30:00.142Z,75.94
2023-03-19T18:34:05.569Z,75.70
2023-03-19T18:38:05.980Z,76.10
2023-03-19T18:42:08.943Z,76.87
2023-03-19T18:46:15.534Z,77.85
2023-03-19T18:50:22.813Z,77.52
2023-03-19T18:54:23.938Z,77.55
2023-03-19T18:58:43.240Z,77.88
2023-03-19T19:02:50.473Z,78.50
2023-03-19T19:06:52.327Z,78.65
2023-03-19T19:16:35.986Z,77.63
2023-03-19T19:20:48.510Z,77.55
2023-03-19T19:25:02.534Z,77.39
2023-03-19T19:29:08.264Z,79.00
2023-03-19T19:33:19.218Z,79.88
2023-03-19T19:37:24.303Z,80.50
2023-03-19T19:41:28.812Z,81.24
2023-03-19T19:45:36.988Z,80.93
2023-03-19T19:49:39.822Z,82.00
2023-03-19T19:53:40.178Z,81.92
2023-03-19T19:57:42.991Z,81.13
2023-03-19T20:01:43.775Z,80.45
2023-03-19T20:05:50.009Z,80.51
2023-03-19T20:09:51.582Z,80.51
2023-03-19T20:13:56.793Z,80.30
2023-03-19T20:17:57.826Z,81.06
2023-03-19T20:22:01.872Z,82.68
2023-03-19T20:26:02.583Z,82.75
2023-03-19T20:30:03.486Z,82.13
2023-03-19T20:34:03.847Z,82.05
2023-03-19T20:38:08.645Z,81.80
2023-03-19T20:42:15.935Z,81.95
2023-03-19T20:46:16.375Z,81.91
2023-03-19T20:50:22.784Z,81.79
2023-03-19T20:54:26.275Z,82.08
2023-03-19T20:58:31.530Z,81.78
2023-03-19T21:02:32.060Z,81.39
2023-03-19T21:06:42.722Z,81.06
2023-03-19T21:10:55.156Z,81.12
2023-03-19T21:14:55.697Z,81.83
2023-03-19T21:18:57.437Z,82.39
2023-03-19T21:23:10.428Z,82.46
2023-03-19T21:27:25.475Z,81.59
2023-03-19T21:31:29.020Z,81.24
2023-03-19T21:35:30.145Z,80.57
2023-03-19T21:39:31.492Z,80.96
2023-03-19T21:43:43.014Z,81.57
2023-03-19T21:47:43.269Z,82.03
2023-03-19T21:51:46.969Z,82.30
2023-03-19T21:55:47.519Z,82.07
2023-03-19T21:59:50.786Z,82.37
2023-03-19T22:03:53.118Z,82.78
2023-03-19T22:07:55.109Z,82.54
2023-03-19T22:11:55.960Z,83.33
2023-03-19T22:16:01.370Z,83.44
2023-03-19T22:20:01.725Z,83.70
2023-03-19T22:24:02.815Z,83.70
2023-03-19T22:28:03.983Z,84.63
2023-03-19T22:32:06.959Z,84.88
2023-03-19T22:36:08.799Z,84.09
2023-03-19T22:40:11.994Z,84.63
2023-03-19T22:44:26.307Z,84.92
2023-03-19T22:48:30.028Z,85.76
2023-03-19T22:52:30.491Z,85.33
2023-03-19T22:56:31.770Z,86.19
2023-03-19T23:00:33.312Z,85.76
2023-03-19T23:04:37.670Z,85.70
2023-03-19T23:08:37.938Z,85.70
2023-03-19T23:12:39.160Z,86.68
2023-03-19T23:16:43.485Z,86.39
2023-03-19T23:20:47.258Z,86.73
2023-03-19T23:24:48.041Z,86.77
2023-03-19T23:28:50.632Z,87.35
2023-03-19T23:32:51.724Z,88.51
2023-03-19T23:36:54.901Z,87.67
2023-03-19T23:40:55.747Z,87.86
2023-03-19T23:45:02.157Z,87.45
2023-03-19T23:49:03.157Z,88.10
2023-03-19T23:53:06.543Z,87.04
2023-03-19T23:57:10.717Z,88.57
